WetterOnline ( https://www.wetteronline.de )

Wetter aktuell Bonn

Aktuelles Wetter: Königswinter-Heiderhof (147m)

6-stündlich | Neueste Meldungen
Ortszeit Temperatur Wetter
Fr, 26.02. 19:00 8.2° C bewölkt
Fr, 26.02. 13:00 8.6° C wolkig
Fr, 26.02. 7:00 7.1° C leichter Regen
Fr, 26.02. 1:00 10.3° C leicht bewölkt
Do, 25.02. 19:00 15.0° C wolkig
Do, 25.02. 13:00 17.4° C wolkenlos
Do, 25.02. 7:00 12.4° C wolkenlos
Do, 25.02. 1:00 12.0° C wolkenlos
Ortszeit Temperatur Wetter
Fr, 26.02. 20:00 8.2° C bewölkt
Fr, 26.02. 19:50 8.2° C bewölkt
Fr, 26.02. 19:40 8.0° C bewölkt
Fr, 26.02. 19:30 7.7° C wolkig
Fr, 26.02. 19:20 7.7° C wolkig
Fr, 26.02. 19:10 7.9° C bedeckt
Fr, 26.02. 19:00 8.2° C bewölkt
Fr, 26.02. 18:30 8.0° C wolkig
Fr, 26.02. 18:00 8.6° C leicht bewölkt
Fr, 26.02. 17:30 9.2° C bewölkt
Fr, 26.02. 17:00 9.3° C wolkig
Ortszeit Relative Feuchte Sichtweite
Fr, 26.02. 19:00 59% 40 km
Fr, 26.02. 13:00 73% 25 km
Fr, 26.02. 7:00 91% 9 km
Fr, 26.02. 1:00 87% 10 km
Do, 25.02. 19:00 54% 24 km
Do, 25.02. 13:00 49% 26 km
Do, 25.02. 7:00 60% 24 km
Do, 25.02. 1:00 70% 23 km
Ortszeit Relative Feuchte Sichtweite
Fr, 26.02. 20:00 55% 55 km
Fr, 26.02. 19:50 55% -
Fr, 26.02. 19:40 58% -
Fr, 26.02. 19:30 62% 45 km
Fr, 26.02. 19:20 62% -
Fr, 26.02. 19:10 63% -
Fr, 26.02. 19:00 59% 40 km
Fr, 26.02. 18:30 57% 40 km
Fr, 26.02. 18:00 54% 50 km
Fr, 26.02. 17:30 54% 45 km
Fr, 26.02. 17:00 54% 60 km
Ortszeit Niederschlagsmenge Niederschlagsart
Fr, 26.02. 19:00 1 l/m2 in 12 Std. -
Fr, 26.02. 13:00 1 l/m2 in 6 Std. Regen
Fr, 26.02. 7:00 1 l/m2 in 12 Std. Regen
Fr, 26.02. 1:00 0.0 l/m2 in 6 Std. -
Do, 25.02. 19:00 0.0 l/m2 in 12 Std. -
Do, 25.02. 13:00 0.0 l/m2 in 6 Std. -
Do, 25.02. 7:00 0.0 l/m2 in 12 Std. -
Do, 25.02. 1:00 0.0 l/m2 in 6 Std. -
Ortszeit Niederschlagsmenge Niederschlagsart
Fr, 26.02. 20:00 0.0 l/m2 in 1 Std. -
Fr, 26.02. 19:50 keine Meldung -
Fr, 26.02. 19:40 keine Meldung -
Fr, 26.02. 19:30 0.0 l/m2 in 1 Std. -
Fr, 26.02. 19:20 keine Meldung -
Fr, 26.02. 19:10 keine Meldung -
Fr, 26.02. 19:00 0.0 l/m2 in 1 Std. -
Fr, 26.02. 18:30 0.0 l/m2 in 1 Std. -
Fr, 26.02. 18:00 0.0 l/m2 in 1 Std. -
Fr, 26.02. 17:30 0.0 l/m2 in 1 Std. -
Fr, 26.02. 17:00 0.0 l/m2 in 1 Std. -
Ortszeit Stärke Spitze Richtung
km/h Bft. km/h Grad Sektor
Fr, 26.02. 19:00 7 2 31 320° NW
Fr, 26.02. 13:00 11 2 25 320° NW
Fr, 26.02. 7:00 9 2 26 300° NW
Fr, 26.02. 1:00 14 3 29 280° W
Do, 25.02. 19:00 15 3 19 190° S
Do, 25.02. 13:00 11 2 32 200° S
Do, 25.02. 7:00 20 4 28 190° S
Do, 25.02. 1:00 0 0 36 - -
Ortszeit Stärke Spitze Richtung
km/h Bft. km/h Grad Sektor
Fr, 26.02. 20:00 14 3 25 340° N
Fr, 26.02. 19:50 14 3 - 340° N
Fr, 26.02. 19:40 13 3 - 340° N
Fr, 26.02. 19:30 7 2 14 330° NW
Fr, 26.02. 19:20 7 2 - 330° NW
Fr, 26.02. 19:10 7 2 - 320° NW
Fr, 26.02. 19:00 7 2 20 320° NW
Fr, 26.02. 18:30 7 2 22 340° N
Fr, 26.02. 18:00 9 2 20 340° N
Fr, 26.02. 17:30 11 2 22 320° NW
Fr, 26.02. 17:00 9 2 26 310° NW
Ortszeit Untergrenze Bedeckung Gattung
total tief tief mittel hoch
Fr, 26.02. 19:00 1410 m 7/8 7/8 - - -
Fr, 26.02. 13:00 690 m 8/8 2/8 - - -
Fr, 26.02. 7:00 330 m 8/8 8/8 - - -
Fr, 26.02. 1:00 4200 m 2/8 2/8 - - -
Do, 25.02. 19:00 7500 m 8/8 0/8 - - -
Do, 25.02. 13:00 - 0/8 0/8 - - -
Do, 25.02. 7:00 - 0/8 0/8 - - -
Do, 25.02. 1:00 - 0/8 0/8 - - -
Ortszeit Bedeckungsgrad in Achtel und Wolkenuntergrenze
Fr, 26.02. 20:00 7(1500m)
Fr, 26.02. 19:50 7(1500m)
Fr, 26.02. 19:40 7(1500m)
Fr, 26.02. 19:30 6(1500m)
Fr, 26.02. 19:20 6(1500m)
Fr, 26.02. 19:10 8(1470m)
Fr, 26.02. 19:00 7(1410m)
Fr, 26.02. 18:30 5(1500m)
Fr, 26.02. 18:00 2(1500m)
Fr, 26.02. 17:30 7(1500m)
Fr, 26.02. 17:00 5(1500m)
Ortszeit Luftdruck NN (hPa) Tendenz (hPa in 3 Std.)
Fr, 26.02. 19:00 1035 + 1,1
Fr, 26.02. 13:00 1035 + 0,9
Fr, 26.02. 7:00 1032 + 1,9
Fr, 26.02. 1:00 1030 + 1,6
Do, 25.02. 19:00 1027 + 0,6
Do, 25.02. 13:00 1027 - 0,1
Do, 25.02. 7:00 1027 - 0,2
Do, 25.02. 1:00 1028 - 0,3
Ortszeit Luftdruck NN (hPa) Tendenz (hPa in 3 Std.)
Fr, 26.02. 20:00 1036 + 1,6
Fr, 26.02. 19:50 1036 keine Meldung
Fr, 26.02. 19:40 1036 keine Meldung
Fr, 26.02. 19:30 1035 + 1,5
Fr, 26.02. 19:20 1035 keine Meldung
Fr, 26.02. 19:10 1035 keine Meldung
Fr, 26.02. 19:00 1035 + 1,1
Fr, 26.02. 18:30 1035 + 0,8
Fr, 26.02. 18:00 1034 + 0,5
Fr, 26.02. 17:30 1034 + 0,3
Fr, 26.02. 17:00 1034 + 0,1
Ortszeit Schneehöhe (cm)
Fr, 26.02. 19:00 0
Fr, 26.02. 13:00 0
Fr, 26.02. 7:00 0
Fr, 26.02. 1:00 0
Do, 25.02. 19:00 0
Do, 25.02. 13:00 0
Do, 25.02. 7:00 0
Do, 25.02. 1:00 0
Ortszeit Schneehöhe (cm)
Fr, 26.02. 20:00 0
Fr, 26.02. 19:50 0
Fr, 26.02. 19:40 0
Fr, 26.02. 19:30 0
Fr, 26.02. 19:20 0
Fr, 26.02. 19:10 0
Fr, 26.02. 19:00 0
Fr, 26.02. 18:30 0
Fr, 26.02. 18:00 0
Fr, 26.02. 17:30 0
Fr, 26.02. 17:00 0
Link zu dieser Seite / Seite empfehlen

Das Wetter in ...